sensor_id;sensor_type;location;lat;lon;timestamp;P1;durP1;ratioP1;P2;durP2;ratioP2
68310;SDS011;55157;51.036;17.058;2024-03-22T00:01:54;15.50;;;12.18;;
68310;SDS011;55157;51.036;17.058;2024-03-22T00:04:21;19.58;;;13.77;;
68310;SDS011;55157;51.036;17.058;2024-03-22T00:06:47;15.43;;;11.85;;
68310;SDS011;55157;51.036;17.058;2024-03-22T00:09:12;16.80;;;12.38;;
68310;SDS011;55157;51.036;17.058;2024-03-22T00:11:38;15.60;;;12.95;;
68310;SDS011;55157;51.036;17.058;2024-03-22T00:14:04;17.95;;;14.05;;
68310;SDS011;55157;51.036;17.058;2024-03-22T00:16:29;17.23;;;13.47;;
68310;SDS011;55157;51.036;17.058;2024-03-22T00:18:54;18.55;;;13.65;;
68310;SDS011;55157;51.036;17.058;2024-03-22T00:21:21;18.47;;;12.07;;
68310;SDS011;55157;51.036;17.058;2024-03-22T00:23:46;32.78;;;11.52;;
68310;SDS011;55157;51.036;17.058;2024-03-22T00:26:11;13.27;;;8.60;;
68310;SDS011;55157;51.036;17.058;2024-03-22T00:28:37;15.23;;;8.07;;
68310;SDS011;55157;51.036;17.058;2024-03-22T00:31:03;11.07;;;7.60;;
68310;SDS011;55157;51.036;17.058;2024-03-22T00:33:28;9.35;;;7.18;;
68310;SDS011;55157;51.036;17.058;2024-03-22T00:35:53;10.27;;;7.63;;
68310;SDS011;55157;51.036;17.058;2024-03-22T00:38:20;20.17;;;8.60;;
68310;SDS011;55157;51.036;17.058;2024-03-22T00:40:45;10.10;;;8.25;;
68310;SDS011;55157;51.036;17.058;2024-03-22T00:43:10;10.37;;;8.67;;
68310;SDS011;55157;51.036;17.058;2024-03-22T00:45:35;10.43;;;8.80;;
68310;SDS011;55157;51.036;17.058;2024-03-22T00:48:01;9.45;;;8.25;;
68310;SDS011;55157;51.036;17.058;2024-03-22T00:50:26;10.27;;;8.63;;
68310;SDS011;55157;51.036;17.058;2024-03-22T00:52:51;12.57;;;9.35;;
68310;SDS011;55157;51.036;17.058;2024-03-22T00:55:18;11.07;;;9.13;;
68310;SDS011;55157;51.036;17.058;2024-03-22T00:57:43;11.88;;;9.85;;
68310;SDS011;55157;51.036;17.058;2024-03-22T01:00:08;11.10;;;9.37;;
68310;SDS011;55157;51.036;17.058;2024-03-22T01:02:34;11.95;;;10.05;;
68310;SDS011;55157;51.036;17.058;2024-03-22T01:04:59;12.83;;;10.30;;
68310;SDS011;55157;51.036;17.058;2024-03-22T01:07:24;13.00;;;10.80;;
68310;SDS011;55157;51.036;17.058;2024-03-22T01:09:49;13.27;;;10.73;;
68310;SDS011;55157;51.036;17.058;2024-03-22T01:12:16;13.10;;;11.02;;
68310;SDS011;55157;51.036;17.058;2024-03-22T01:14:41;14.70;;;11.43;;
68310;SDS011;55157;51.036;17.058;2024-03-22T01:17:06;16.10;;;11.65;;
68310;SDS011;55157;51.036;17.058;2024-03-22T01:19:33;16.87;;;10.53;;
68310;SDS011;55157;51.036;17.058;2024-03-22T01:21:58;12.85;;;10.30;;
68310;SDS011;55157;51.036;17.058;2024-03-22T01:24:23;14.05;;;10.77;;
68310;SDS011;55157;51.036;17.058;2024-03-22T01:26:49;14.13;;;8.95;;
68310;SDS011;55157;51.036;17.058;2024-03-22T01:29:15;11.43;;;8.55;;
68310;SDS011;55157;51.036;17.058;2024-03-22T01:31:40;10.60;;;9.18;;
68310;SDS011;55157;51.036;17.058;2024-03-22T01:34:06;10.63;;;8.70;;
68310;SDS011;55157;51.036;17.058;2024-03-22T01:36:31;11.63;;;8.75;;
68310;SDS011;55157;51.036;17.058;2024-03-22T01:38:56;10.70;;;8.30;;
68310;SDS011;55157;51.036;17.058;2024-03-22T01:41:21;8.13;;;6.85;;
68310;SDS011;55157;51.036;17.058;2024-03-22T01:43:46;9.73;;;7.43;;
68310;SDS011;55157;51.036;17.058;2024-03-22T01:46:13;7.40;;;6.57;;
68310;SDS011;55157;51.036;17.058;2024-03-22T01:48:38;8.65;;;6.60;;
68310;SDS011;55157;51.036;17.058;2024-03-22T01:51:04;9.13;;;8.00;;
68310;SDS011;55157;51.036;17.058;2024-03-22T01:53:30;9.68;;;7.82;;
68310;SDS011;55157;51.036;17.058;2024-03-22T01:55:55;10.65;;;8.68;;
68310;SDS011;55157;51.036;17.058;2024-03-22T01:58:20;11.43;;;8.52;;
68310;SDS011;55157;51.036;17.058;2024-03-22T02:00:46;9.55;;;7.63;;
68310;SDS011;55157;51.036;17.058;2024-03-22T02:03:12;10.57;;;8.13;;
68310;SDS011;55157;51.036;17.058;2024-03-22T02:05:38;10.75;;;8.30;;
68310;SDS011;55157;51.036;17.058;2024-03-22T02:08:03;10.85;;;8.38;;
68310;SDS011;55157;51.036;17.058;2024-03-22T02:10:28;11.60;;;8.43;;
68310;SDS011;55157;51.036;17.058;2024-03-22T02:12:53;9.63;;;7.90;;
68310;SDS011;55157;51.036;17.058;2024-03-22T02:15:19;10.23;;;8.30;;
68310;SDS011;55157;51.036;17.058;2024-03-22T02:17:44;9.77;;;7.95;;
68310;SDS011;55157;51.036;17.058;2024-03-22T02:20:11;11.57;;;9.02;;
68310;SDS011;55157;51.036;17.058;2024-03-22T02:22:36;14.75;;;8.18;;
68310;SDS011;55157;51.036;17.058;2024-03-22T02:25:03;8.77;;;7.50;;
68310;SDS011;55157;51.036;17.058;2024-03-22T02:27:28;10.60;;;7.93;;
68310;SDS011;55157;51.036;17.058;2024-03-22T02:29:53;9.93;;;7.53;;
68310;SDS011;55157;51.036;17.058;2024-03-22T02:32:18;12.10;;;9.75;;
68310;SDS011;55157;51.036;17.058;2024-03-22T02:34:44;10.65;;;7.93;;
68310;SDS011;55157;51.036;17.058;2024-03-22T02:37:09;12.20;;;8.20;;
68310;SDS011;55157;51.036;17.058;2024-03-22T02:39:34;9.43;;;8.10;;
68310;SDS011;55157;51.036;17.058;2024-03-22T02:42:01;11.13;;;8.63;;
68310;SDS011;55157;51.036;17.058;2024-03-22T02:44:26;9.80;;;8.60;;
68310;SDS011;55157;51.036;17.058;2024-03-22T02:46:51;9.13;;;7.97;;
68310;SDS011;55157;51.036;17.058;2024-03-22T02:49:16;9.52;;;7.82;;
68310;SDS011;55157;51.036;17.058;2024-03-22T02:51:42;9.88;;;8.15;;
68310;SDS011;55157;51.036;17.058;2024-03-22T02:54:07;12.80;;;9.35;;
68310;SDS011;55157;51.036;17.058;2024-03-22T02:56:32;10.07;;;8.87;;
68310;SDS011;55157;51.036;17.058;2024-03-22T02:58:58;14.02;;;9.82;;
68310;SDS011;55157;51.036;17.058;2024-03-22T03:01:24;13.13;;;9.48;;
68310;SDS011;55157;51.036;17.058;2024-03-22T03:03:49;11.02;;;9.52;;
68310;SDS011;55157;51.036;17.058;2024-03-22T03:06:14;12.73;;;9.30;;
68310;SDS011;55157;51.036;17.058;2024-03-22T03:08:39;13.73;;;11.23;;
68310;SDS011;55157;51.036;17.058;2024-03-22T03:11:04;14.50;;;11.65;;
68310;SDS011;55157;51.036;17.058;2024-03-22T03:13:30;13.97;;;11.60;;
68310;SDS011;55157;51.036;17.058;2024-03-22T03:15:56;15.25;;;12.35;;
68310;SDS011;55157;51.036;17.058;2024-03-22T03:18:21;17.27;;;14.38;;
68310;SDS011;55157;51.036;17.058;2024-03-22T03:20:47;16.47;;;14.27;;
68310;SDS011;55157;51.036;17.058;2024-03-22T03:23:12;15.88;;;14.18;;
68310;SDS011;55157;51.036;17.058;2024-03-22T03:25:37;18.15;;;14.68;;
68310;SDS011;55157;51.036;17.058;2024-03-22T03:28:02;19.60;;;15.20;;
68310;SDS011;55157;51.036;17.058;2024-03-22T03:30:28;18.80;;;16.08;;
68310;SDS011;55157;51.036;17.058;2024-03-22T03:32:54;17.13;;;14.30;;
68310;SDS011;55157;51.036;17.058;2024-03-22T03:35:19;19.10;;;15.25;;
68310;SDS011;55157;51.036;17.058;2024-03-22T03:37:45;18.00;;;14.03;;
68310;SDS011;55157;51.036;17.058;2024-03-22T03:40:10;17.80;;;14.50;;
68310;SDS011;55157;51.036;17.058;2024-03-22T03:42:35;17.17;;;13.63;;
68310;SDS011;55157;51.036;17.058;2024-03-22T03:45:00;18.50;;;14.97;;
68310;SDS011;55157;51.036;17.058;2024-03-22T03:47:26;19.35;;;15.00;;
68310;SDS011;55157;51.036;17.058;2024-03-22T03:49:52;19.20;;;15.63;;
68310;SDS011;55157;51.036;17.058;2024-03-22T03:52:18;19.35;;;15.13;;
68310;SDS011;55157;51.036;17.058;2024-03-22T03:54:43;19.65;;;15.30;;
68310;SDS011;55157;51.036;17.058;2024-03-22T03:57:08;16.77;;;14.23;;
68310;SDS011;55157;51.036;17.058;2024-03-22T03:59:33;18.15;;;15.30;;
68310;SDS011;55157;51.036;17.058;2024-03-22T04:01:59;16.80;;;14.32;;
68310;SDS011;55157;51.036;17.058;2024-03-22T04:04:24;15.32;;;13.30;;
68310;SDS011;55157;51.036;17.058;2024-03-22T04:06:50;17.63;;;14.37;;
68310;SDS011;55157;51.036;17.058;2024-03-22T04:09:16;19.10;;;15.60;;
68310;SDS011;55157;51.036;17.058;2024-03-22T04:11:41;16.60;;;14.70;;
68310;SDS011;55157;51.036;17.058;2024-03-22T04:14:06;16.88;;;15.07;;
68310;SDS011;55157;51.036;17.058;2024-03-22T04:16:31;17.60;;;15.25;;
68310;SDS011;55157;51.036;17.058;2024-03-22T04:18:57;18.95;;;14.50;;
68310;SDS011;55157;51.036;17.058;2024-03-22T04:21:22;18.55;;;15.18;;
68310;SDS011;55157;51.036;17.058;2024-03-22T04:23:48;20.30;;;14.90;;
68310;SDS011;55157;51.036;17.058;2024-03-22T04:26:14;15.50;;;13.80;;
68310;SDS011;55157;51.036;17.058;2024-03-22T04:28:40;18.42;;;15.10;;
68310;SDS011;55157;51.036;17.058;2024-03-22T04:31:05;18.23;;;14.13;;
68310;SDS011;55157;51.036;17.058;2024-03-22T04:33:31;15.60;;;13.95;;
68310;SDS011;55157;51.036;17.058;2024-03-22T04:35:57;18.70;;;14.50;;
68310;SDS011;55157;51.036;17.058;2024-03-22T04:38:22;17.98;;;14.93;;
68310;SDS011;55157;51.036;17.058;2024-03-22T04:40:49;19.67;;;14.82;;
68310;SDS011;55157;51.036;17.058;2024-03-22T04:43:14;16.40;;;14.63;;
68310;SDS011;55157;51.036;17.058;2024-03-22T04:45:41;20.42;;;15.30;;
68310;SDS011;55157;51.036;17.058;2024-03-22T04:48:06;15.88;;;13.75;;
68310;SDS011;55157;51.036;17.058;2024-03-22T04:50:31;17.70;;;14.65;;
68310;SDS011;55157;51.036;17.058;2024-03-22T04:52:57;16.25;;;14.43;;
68310;SDS011;55157;51.036;17.058;2024-03-22T04:55:22;17.83;;;14.07;;
68310;SDS011;55157;51.036;17.058;2024-03-22T04:57:49;23.02;;;16.00;;
68310;SDS011;55157;51.036;17.058;2024-03-22T05:00:14;18.23;;;15.25;;
68310;SDS011;55157;51.036;17.058;2024-03-22T05:02:40;15.88;;;14.02;;
68310;SDS011;55157;51.036;17.058;2024-03-22T05:05:05;18.80;;;14.20;;
68310;SDS011;55157;51.036;17.058;2024-03-22T05:07:30;20.17;;;15.05;;
68310;SDS011;55157;51.036;17.058;2024-03-22T05:09:56;15.80;;;13.85;;
68310;SDS011;55157;51.036;17.058;2024-03-22T05:12:21;14.40;;;12.93;;
68310;SDS011;55157;51.036;17.058;2024-03-22T05:14:47;15.82;;;13.02;;
68310;SDS011;55157;51.036;17.058;2024-03-22T05:17:13;15.48;;;13.75;;
68310;SDS011;55157;51.036;17.058;2024-03-22T05:19:38;16.60;;;12.93;;
68310;SDS011;55157;51.036;17.058;2024-03-22T05:22:03;16.03;;;12.70;;
68310;SDS011;55157;51.036;17.058;2024-03-22T05:24:28;16.48;;;13.10;;
68310;SDS011;55157;51.036;17.058;2024-03-22T05:26:54;16.75;;;13.68;;
68310;SDS011;55157;51.036;17.058;2024-03-22T05:29:19;16.90;;;13.02;;
68310;SDS011;55157;51.036;17.058;2024-03-22T05:31:49;15.60;;;13.18;;
68310;SDS011;55157;51.036;17.058;2024-03-22T05:34:14;15.63;;;13.27;;
68310;SDS011;55157;51.036;17.058;2024-03-22T05:36:39;14.77;;;13.00;;
68310;SDS011;55157;51.036;17.058;2024-03-22T05:39:05;20.45;;;15.23;;
68310;SDS011;55157;51.036;17.058;2024-03-22T05:41:30;15.38;;;12.75;;
68310;SDS011;55157;51.036;17.058;2024-03-22T05:43:55;15.45;;;13.73;;
68310;SDS011;55157;51.036;17.058;2024-03-22T05:46:20;18.20;;;14.65;;
68310;SDS011;55157;51.036;17.058;2024-03-22T05:48:47;18.52;;;13.90;;
68310;SDS011;55157;51.036;17.058;2024-03-22T05:51:12;17.45;;;13.98;;
68310;SDS011;55157;51.036;17.058;2024-03-22T05:53:37;18.10;;;14.75;;
68310;SDS011;55157;51.036;17.058;2024-03-22T05:56:03;15.95;;;13.20;;
68310;SDS011;55157;51.036;17.058;2024-03-22T05:58:28;16.13;;;13.50;;
68310;SDS011;55157;51.036;17.058;2024-03-22T06:00:53;17.77;;;13.55;;
68310;SDS011;55157;51.036;17.058;2024-03-22T06:03:18;17.70;;;13.95;;
68310;SDS011;55157;51.036;17.058;2024-03-22T06:05:45;18.77;;;13.77;;
68310;SDS011;55157;51.036;17.058;2024-03-22T06:08:11;18.17;;;13.15;;
68310;SDS011;55157;51.036;17.058;2024-03-22T06:10:36;16.10;;;13.48;;
68310;SDS011;55157;51.036;17.058;2024-03-22T06:13:01;18.00;;;14.53;;
68310;SDS011;55157;51.036;17.058;2024-03-22T06:15:26;18.33;;;12.37;;
68310;SDS011;55157;51.036;17.058;2024-03-22T06:17:51;16.90;;;12.80;;
68310;SDS011;55157;51.036;17.058;2024-03-22T06:20:16;18.00;;;14.70;;
68310;SDS011;55157;51.036;17.058;2024-03-22T06:22:43;16.67;;;12.93;;
68310;SDS011;55157;51.036;17.058;2024-03-22T06:25:08;19.08;;;13.75;;
68310;SDS011;55157;51.036;17.058;2024-03-22T06:27:33;17.50;;;13.43;;
68310;SDS011;55157;51.036;17.058;2024-03-22T06:29:59;19.83;;;14.73;;
68310;SDS011;55157;51.036;17.058;2024-03-22T06:32:24;15.85;;;12.57;;
68310;SDS011;55157;51.036;17.058;2024-03-22T06:34:49;16.93;;;12.83;;
68310;SDS011;55157;51.036;17.058;2024-03-22T06:37:14;16.30;;;13.63;;
68310;SDS011;55157;51.036;17.058;2024-03-22T06:39:41;17.37;;;13.97;;
68310;SDS011;55157;51.036;17.058;2024-03-22T06:42:06;17.17;;;13.65;;
68310;SDS011;55157;51.036;17.058;2024-03-22T06:44:31;17.52;;;14.55;;
68310;SDS011;55157;51.036;17.058;2024-03-22T06:46:56;19.07;;;15.23;;
68310;SDS011;55157;51.036;17.058;2024-03-22T06:49:22;21.30;;;15.68;;
68310;SDS011;55157;51.036;17.058;2024-03-22T06:51:47;17.77;;;14.13;;
68310;SDS011;55157;51.036;17.058;2024-03-22T06:54:12;17.90;;;14.18;;
68310;SDS011;55157;51.036;17.058;2024-03-22T06:56:39;21.27;;;15.45;;
68310;SDS011;55157;51.036;17.058;2024-03-22T06:59:04;18.15;;;13.68;;
68310;SDS011;55157;51.036;17.058;2024-03-22T07:01:29;18.23;;;13.85;;
68310;SDS011;55157;51.036;17.058;2024-03-22T07:03:54;16.38;;;12.55;;
68310;SDS011;55157;51.036;17.058;2024-03-22T07:06:21;20.25;;;15.48;;
68310;SDS011;55157;51.036;17.058;2024-03-22T07:08:46;22.38;;;14.80;;
68310;SDS011;55157;51.036;17.058;2024-03-22T07:11:11;20.95;;;15.30;;
68310;SDS011;55157;51.036;17.058;2024-03-22T07:13:38;20.37;;;16.03;;
68310;SDS011;55157;51.036;17.058;2024-03-22T07:16:03;22.23;;;15.82;;
68310;SDS011;55157;51.036;17.058;2024-03-22T07:18:29;21.20;;;16.10;;
68310;SDS011;55157;51.036;17.058;2024-03-22T07:20:54;20.63;;;17.13;;
68310;SDS011;55157;51.036;17.058;2024-03-22T07:23:19;23.48;;;15.82;;
68310;SDS011;55157;51.036;17.058;2024-03-22T07:25:44;23.45;;;15.65;;
68310;SDS011;55157;51.036;17.058;2024-03-22T07:28:09;19.73;;;15.87;;
68310;SDS011;55157;51.036;17.058;2024-03-22T07:30:36;19.70;;;14.80;;
68310;SDS011;55157;51.036;17.058;2024-03-22T07:33:01;21.27;;;16.20;;
68310;SDS011;55157;51.036;17.058;2024-03-22T07:35:26;22.27;;;17.10;;
68310;SDS011;55157;51.036;17.058;2024-03-22T07:37:51;20.83;;;15.73;;
68310;SDS011;55157;51.036;17.058;2024-03-22T07:40:17;20.27;;;15.97;;
68310;SDS011;55157;51.036;17.058;2024-03-22T07:42:42;21.70;;;15.60;;
68310;SDS011;55157;51.036;17.058;2024-03-22T07:45:07;21.97;;;17.23;;
68310;SDS011;55157;51.036;17.058;2024-03-22T07:47:34;18.50;;;15.82;;
68310;SDS011;55157;51.036;17.058;2024-03-22T07:49:59;18.70;;;14.23;;
68310;SDS011;55157;51.036;17.058;2024-03-22T07:52:24;19.38;;;15.32;;
68310;SDS011;55157;51.036;17.058;2024-03-22T07:54:50;19.90;;;14.63;;
68310;SDS011;55157;51.036;17.058;2024-03-22T07:57:15;20.05;;;15.55;;
68310;SDS011;55157;51.036;17.058;2024-03-22T07:59:40;22.07;;;15.43;;
68310;SDS011;55157;51.036;17.058;2024-03-22T08:02:05;21.10;;;16.17;;
68310;SDS011;55157;51.036;17.058;2024-03-22T08:04:32;22.08;;;16.58;;
68310;SDS011;55157;51.036;17.058;2024-03-22T08:06:57;18.67;;;15.40;;
68310;SDS011;55157;51.036;17.058;2024-03-22T08:09:22;22.73;;;16.30;;
68310;SDS011;55157;51.036;17.058;2024-03-22T08:11:48;22.95;;;16.50;;
68310;SDS011;55157;51.036;17.058;2024-03-22T08:14:13;21.25;;;16.90;;
68310;SDS011;55157;51.036;17.058;2024-03-22T08:16:38;22.23;;;17.07;;
68310;SDS011;55157;51.036;17.058;2024-03-22T08:19:03;20.67;;;16.80;;
68310;SDS011;55157;51.036;17.058;2024-03-22T08:21:30;23.25;;;18.63;;
68310;SDS011;55157;51.036;17.058;2024-03-22T08:23:55;24.63;;;17.88;;
68310;SDS011;55157;51.036;17.058;2024-03-22T08:26:20;21.02;;;15.85;;
68310;SDS011;55157;51.036;17.058;2024-03-22T08:28:46;26.63;;;18.02;;
68310;SDS011;55157;51.036;17.058;2024-03-22T08:31:11;24.15;;;16.98;;
68310;SDS011;55157;51.036;17.058;2024-03-22T08:33:36;24.70;;;16.67;;
68310;SDS011;55157;51.036;17.058;2024-03-22T08:36:01;21.15;;;17.17;;
68310;SDS011;55157;51.036;17.058;2024-03-22T08:38:28;22.23;;;16.92;;
68310;SDS011;55157;51.036;17.058;2024-03-22T08:40:53;20.58;;;16.33;;
68310;SDS011;55157;51.036;17.058;2024-03-22T08:43:19;19.42;;;15.10;;
68310;SDS011;55157;51.036;17.058;2024-03-22T08:45:44;21.08;;;16.08;;
68310;SDS011;55157;51.036;17.058;2024-03-22T08:48:09;22.25;;;16.15;;
68310;SDS011;55157;51.036;17.058;2024-03-22T08:50:34;21.80;;;16.98;;
68310;SDS011;55157;51.036;17.058;2024-03-22T08:52:59;22.70;;;16.00;;
68310;SDS011;55157;51.036;17.058;2024-03-22T08:55:26;20.25;;;15.57;;
68310;SDS011;55157;51.036;17.058;2024-03-22T08:57:51;20.73;;;14.82;;
68310;SDS011;55157;51.036;17.058;2024-03-22T09:00:17;19.13;;;12.85;;
68310;SDS011;55157;51.036;17.058;2024-03-22T09:02:42;20.83;;;15.00;;
68310;SDS011;55157;51.036;17.058;2024-03-22T09:05:07;19.80;;;15.05;;
68310;SDS011;55157;51.036;17.058;2024-03-22T09:07:33;18.48;;;14.13;;
68310;SDS011;55157;51.036;17.058;2024-03-22T09:09:58;17.30;;;13.97;;
68310;SDS011;55157;51.036;17.058;2024-03-22T09:12:24;19.10;;;14.25;;
68310;SDS011;55157;51.036;17.058;2024-03-22T09:14:50;17.58;;;12.80;;
68310;SDS011;55157;51.036;17.058;2024-03-22T09:17:15;17.85;;;13.07;;
68310;SDS011;55157;51.036;17.058;2024-03-22T09:19:40;14.95;;;12.52;;
68310;SDS011;55157;51.036;17.058;2024-03-22T09:22:05;13.98;;;12.43;;
68310;SDS011;55157;51.036;17.058;2024-03-22T09:24:31;16.50;;;12.18;;
68310;SDS011;55157;51.036;17.058;2024-03-22T09:26:56;13.52;;;10.45;;
68310;SDS011;55157;51.036;17.058;2024-03-22T09:29:23;18.52;;;12.32;;
68310;SDS011;55157;51.036;17.058;2024-03-22T09:31:48;14.43;;;11.80;;
68310;SDS011;55157;51.036;17.058;2024-03-22T09:34:13;16.73;;;11.98;;
68310;SDS011;55157;51.036;17.058;2024-03-22T09:36:38;19.95;;;11.80;;
68310;SDS011;55157;51.036;17.058;2024-03-22T09:39:04;12.70;;;11.18;;
68310;SDS011;55157;51.036;17.058;2024-03-22T09:41:29;16.23;;;11.82;;
68310;SDS011;55157;51.036;17.058;2024-03-22T09:43:57;16.98;;;13.60;;
68310;SDS011;55157;51.036;17.058;2024-03-22T09:46:24;14.90;;;12.57;;
68310;SDS011;55157;51.036;17.058;2024-03-22T09:48:49;18.95;;;12.45;;
68310;SDS011;55157;51.036;17.058;2024-03-22T09:51:15;19.75;;;12.57;;
68310;SDS011;55157;51.036;17.058;2024-03-22T09:53:41;15.90;;;12.27;;
68310;SDS011;55157;51.036;17.058;2024-03-22T09:56:07;14.43;;;11.27;;
68310;SDS011;55157;51.036;17.058;2024-03-22T09:58:33;17.05;;;12.18;;
68310;SDS011;55157;51.036;17.058;2024-03-22T10:00:58;18.77;;;12.25;;
68310;SDS011;55157;51.036;17.058;2024-03-22T10:03:25;16.88;;;12.82;;
68310;SDS011;55157;51.036;17.058;2024-03-22T10:05:50;19.98;;;12.00;;
68310;SDS011;55157;51.036;17.058;2024-03-22T10:08:15;14.70;;;11.57;;
68310;SDS011;55157;51.036;17.058;2024-03-22T10:10:41;16.15;;;12.82;;
68310;SDS011;55157;51.036;17.058;2024-03-22T10:13:06;17.55;;;11.57;;
68310;SDS011;55157;51.036;17.058;2024-03-22T10:15:31;19.37;;;12.73;;
68310;SDS011;55157;51.036;17.058;2024-03-22T10:17:57;17.97;;;12.67;;
68310;SDS011;55157;51.036;17.058;2024-03-22T10:20:24;15.52;;;12.00;;
68310;SDS011;55157;51.036;17.058;2024-03-22T10:22:53;18.27;;;12.18;;
68310;SDS011;55157;51.036;17.058;2024-03-22T10:25:19;16.08;;;12.23;;
68310;SDS011;55157;51.036;17.058;2024-03-22T10:27:45;16.27;;;12.27;;
68310;SDS011;55157;51.036;17.058;2024-03-22T10:30:10;21.98;;;12.57;;
68310;SDS011;55157;51.036;17.058;2024-03-22T10:32:37;14.93;;;12.48;;
68310;SDS011;55157;51.036;17.058;2024-03-22T10:35:02;24.42;;;14.85;;
68310;SDS011;55157;51.036;17.058;2024-03-22T10:37:30;21.73;;;13.77;;
68310;SDS011;55157;51.036;17.058;2024-03-22T10:39:55;16.60;;;12.85;;
68310;SDS011;55157;51.036;17.058;2024-03-22T10:42:21;17.42;;;12.98;;
68310;SDS011;55157;51.036;17.058;2024-03-22T10:44:47;21.65;;;12.50;;
68310;SDS011;55157;51.036;17.058;2024-03-22T10:47:12;18.67;;;12.85;;
68310;SDS011;55157;51.036;17.058;2024-03-22T10:49:39;17.88;;;12.48;;
68310;SDS011;55157;51.036;17.058;2024-03-22T10:52:04;19.00;;;12.98;;
68310;SDS011;55157;51.036;17.058;2024-03-22T10:54:33;19.85;;;11.60;;
68310;SDS011;55157;51.036;17.058;2024-03-22T10:56:59;19.52;;;12.23;;
68310;SDS011;55157;51.036;17.058;2024-03-22T10:59:25;15.38;;;12.05;;
68310;SDS011;55157;51.036;17.058;2024-03-22T11:01:50;18.30;;;12.73;;
68310;SDS011;55157;51.036;17.058;2024-03-22T11:04:16;22.73;;;13.23;;
68310;SDS011;55157;51.036;17.058;2024-03-22T11:06:46;19.75;;;11.93;;
68310;SDS011;55157;51.036;17.058;2024-03-22T11:09:12;16.70;;;12.38;;
68310;SDS011;55157;51.036;17.058;2024-03-22T11:11:44;20.05;;;11.38;;
68310;SDS011;55157;51.036;17.058;2024-03-22T11:14:09;14.57;;;11.88;;
68310;SDS011;55157;51.036;17.058;2024-03-22T11:16:35;20.77;;;12.30;;
68310;SDS011;55157;51.036;17.058;2024-03-22T11:19:00;20.40;;;12.60;;
68310;SDS011;55157;51.036;17.058;2024-03-22T11:21:25;17.23;;;12.53;;
68310;SDS011;55157;51.036;17.058;2024-03-22T11:23:50;17.17;;;11.83;;
68310;SDS011;55157;51.036;17.058;2024-03-22T11:26:15;16.87;;;11.87;;
68310;SDS011;55157;51.036;17.058;2024-03-22T11:28:43;15.57;;;11.88;;
68310;SDS011;55157;51.036;17.058;2024-03-22T11:31:08;19.60;;;11.50;;
68310;SDS011;55157;51.036;17.058;2024-03-22T11:33:33;23.65;;;13.90;;
68310;SDS011;55157;51.036;17.058;2024-03-22T11:35:58;24.83;;;12.95;;
68310;SDS011;55157;51.036;17.058;2024-03-22T11:38:24;17.97;;;12.83;;
68310;SDS011;55157;51.036;17.058;2024-03-22T11:40:49;20.37;;;12.53;;
68310;SDS011;55157;51.036;17.058;2024-03-22T11:43:14;16.08;;;11.27;;
68310;SDS011;55157;51.036;17.058;2024-03-22T11:45:41;17.42;;;11.93;;
68310;SDS011;55157;51.036;17.058;2024-03-22T11:48:07;18.80;;;12.40;;
68310;SDS011;55157;51.036;17.058;2024-03-22T11:50:32;15.20;;;11.63;;
68310;SDS011;55157;51.036;17.058;2024-03-22T11:52:57;21.85;;;11.98;;
68310;SDS011;55157;51.036;17.058;2024-03-22T11:55:26;27.07;;;13.40;;
68310;SDS011;55157;51.036;17.058;2024-03-22T11:57:51;19.50;;;13.57;;
68310;SDS011;55157;51.036;17.058;2024-03-22T12:00:17;27.75;;;13.18;;
68310;SDS011;55157;51.036;17.058;2024-03-22T12:02:44;20.30;;;14.13;;
68310;SDS011;55157;51.036;17.058;2024-03-22T12:05:09;16.35;;;12.88;;
68310;SDS011;55157;51.036;17.058;2024-03-22T12:07:35;15.55;;;12.15;;
68310;SDS011;55157;51.036;17.058;2024-03-22T12:10:00;19.07;;;11.37;;
68310;SDS011;55157;51.036;17.058;2024-03-22T12:12:25;15.52;;;9.73;;
68310;SDS011;55157;51.036;17.058;2024-03-22T12:14:50;13.30;;;10.75;;
68310;SDS011;55157;51.036;17.058;2024-03-22T12:17:16;17.93;;;12.17;;
68310;SDS011;55157;51.036;17.058;2024-03-22T12:19:42;22.30;;;11.75;;
68310;SDS011;55157;51.036;17.058;2024-03-22T12:22:07;17.77;;;10.77;;
68310;SDS011;55157;51.036;17.058;2024-03-22T12:24:33;17.10;;;11.82;;
68310;SDS011;55157;51.036;17.058;2024-03-22T12:26:58;19.70;;;10.40;;
68310;SDS011;55157;51.036;17.058;2024-03-22T12:29:23;16.77;;;9.93;;
68310;SDS011;55157;51.036;17.058;2024-03-22T12:31:48;19.15;;;9.98;;
68310;SDS011;55157;51.036;17.058;2024-03-22T12:34:14;13.13;;;9.82;;
68310;SDS011;55157;51.036;17.058;2024-03-22T12:36:40;17.23;;;9.25;;
68310;SDS011;55157;51.036;17.058;2024-03-22T12:39:05;17.40;;;8.98;;
68310;SDS011;55157;51.036;17.058;2024-03-22T12:41:31;13.27;;;8.80;;
68310;SDS011;55157;51.036;17.058;2024-03-22T12:43:56;16.30;;;9.20;;
68310;SDS011;55157;51.036;17.058;2024-03-22T12:46:21;11.65;;;9.02;;
68310;SDS011;55157;51.036;17.058;2024-03-22T12:48:46;13.50;;;8.43;;
68310;SDS011;55157;51.036;17.058;2024-03-22T12:51:12;11.75;;;7.50;;
68310;SDS011;55157;51.036;17.058;2024-03-22T12:53:38;11.33;;;7.83;;
68310;SDS011;55157;51.036;17.058;2024-03-22T12:56:04;11.93;;;8.23;;
68310;SDS011;55157;51.036;17.058;2024-03-22T12:58:29;10.50;;;6.35;;
68310;SDS011;55157;51.036;17.058;2024-03-22T13:00:54;12.30;;;7.38;;
68310;SDS011;55157;51.036;17.058;2024-03-22T13:03:19;17.10;;;7.10;;
68310;SDS011;55157;51.036;17.058;2024-03-22T13:05:45;11.52;;;7.55;;
68310;SDS011;55157;51.036;17.058;2024-03-22T13:08:10;9.02;;;6.07;;
68310;SDS011;55157;51.036;17.058;2024-03-22T13:10:36;11.20;;;6.90;;
68310;SDS011;55157;51.036;17.058;2024-03-22T13:13:02;9.93;;;6.72;;
68310;SDS011;55157;51.036;17.058;2024-03-22T13:15:27;13.23;;;6.18;;
68310;SDS011;55157;51.036;17.058;2024-03-22T13:17:52;16.48;;;7.63;;
68310;SDS011;55157;51.036;17.058;2024-03-22T13:20:17;8.47;;;6.47;;
68310;SDS011;55157;51.036;17.058;2024-03-22T13:22:43;9.95;;;6.60;;
68310;SDS011;55157;51.036;17.058;2024-03-22T13:25:08;9.30;;;6.67;;
68310;SDS011;55157;51.036;17.058;2024-03-22T13:27:34;10.38;;;7.13;;
68310;SDS011;55157;51.036;17.058;2024-03-22T13:30:00;13.52;;;9.80;;
68310;SDS011;55157;51.036;17.058;2024-03-22T13:32:25;14.35;;;8.02;;
68310;SDS011;55157;51.036;17.058;2024-03-22T13:34:50;9.60;;;8.15;;
68310;SDS011;55157;51.036;17.058;2024-03-22T13:37:15;12.13;;;8.52;;
68310;SDS011;55157;51.036;17.058;2024-03-22T13:39:41;16.05;;;9.02;;
68310;SDS011;55157;51.036;17.058;2024-03-22T13:42:06;11.65;;;8.27;;
68310;SDS011;55157;51.036;17.058;2024-03-22T13:44:33;14.00;;;8.25;;
68310;SDS011;55157;51.036;17.058;2024-03-22T13:46:58;22.05;;;8.77;;
68310;SDS011;55157;51.036;17.058;2024-03-22T13:49:23;22.15;;;11.13;;
68310;SDS011;55157;51.036;17.058;2024-03-22T13:51:49;14.27;;;9.38;;
68310;SDS011;55157;51.036;17.058;2024-03-22T13:54:14;15.35;;;9.40;;
68310;SDS011;55157;51.036;17.058;2024-03-22T13:56:39;18.17;;;10.27;;
68310;SDS011;55157;51.036;17.058;2024-03-22T13:59:05;15.65;;;8.85;;
68310;SDS011;55157;51.036;17.058;2024-03-22T14:01:31;12.77;;;9.70;;
68310;SDS011;55157;51.036;17.058;2024-03-22T14:03:56;14.05;;;8.55;;